createdAt,value
2022-09-20T00:00:26.249Z,6.00
2022-09-20T00:01:23.534Z,6.70
2022-09-20T00:01:56.759Z,5.90
2022-09-20T00:02:29.832Z,5.30
2022-09-20T00:03:02.939Z,6.30
2022-09-20T00:03:38.632Z,7.00
2022-09-20T00:04:11.716Z,6.20
2022-09-20T00:04:44.829Z,6.10
2022-09-20T00:05:18.074Z,6.10
2022-09-20T00:05:51.312Z,6.00
2022-09-20T00:06:27.459Z,5.30
2022-09-20T00:07:00.508Z,5.50
2022-09-20T00:07:33.774Z,5.50
2022-09-20T00:08:10.596Z,5.90
2022-09-20T00:08:44.640Z,5.10
2022-09-20T00:09:17.742Z,5.20
2022-09-20T00:09:51.314Z,5.80
2022-09-20T00:10:24.802Z,5.20
2022-09-20T00:11:02.641Z,5.50
2022-09-20T00:11:37.279Z,6.00
2022-09-20T00:12:10.808Z,5.60
2022-09-20T00:12:44.076Z,7.00
2022-09-20T00:13:17.249Z,4.90
2022-09-20T00:13:53.338Z,4.70
2022-09-20T00:14:26.371Z,5.40
2022-09-20T00:14:59.386Z,6.10
2022-09-20T00:15:33.632Z,5.60
2022-09-20T00:16:09.692Z,5.70
2022-09-20T00:16:43.090Z,5.50
2022-09-20T00:17:16.346Z,6.20
2022-09-20T00:17:49.566Z,4.50
2022-09-20T00:18:22.950Z,4.90
2022-09-20T00:18:58.244Z,5.00
2022-09-20T00:19:31.412Z,5.60
2022-09-20T00:20:04.822Z,4.70
2022-09-20T00:20:45.358Z,4.50
2022-09-20T00:21:21.303Z,4.80
2022-09-20T00:21:54.347Z,5.40
2022-09-20T00:22:27.943Z,4.70
2022-09-20T00:23:01.060Z,4.80
2022-09-20T00:23:36.196Z,5.60
2022-09-20T00:24:11.054Z,5.40
2022-09-20T00:24:48.731Z,6.00
2022-09-20T00:25:22.756Z,5.20
2022-09-20T00:26:01.697Z,5.70
2022-09-20T00:26:34.861Z,5.70
2022-09-20T00:27:07.971Z,5.60
2022-09-20T00:27:41.163Z,5.60
2022-09-20T00:28:14.383Z,5.50
2022-09-20T00:28:47.698Z,5.90
2022-09-20T00:29:20.846Z,5.80
2022-09-20T00:29:54.072Z,6.00
2022-09-20T00:30:27.400Z,5.00
2022-09-20T00:31:01.230Z,5.10
2022-09-20T00:31:35.865Z,5.70
2022-09-20T00:32:09.057Z,5.50
2022-09-20T00:32:42.131Z,4.80
2022-09-20T00:33:15.584Z,5.10
2022-09-20T00:34:07.534Z,4.90
2022-09-20T00:34:59.481Z,4.70
2022-09-20T00:35:33.362Z,5.10
2022-09-20T00:36:06.492Z,5.30
2022-09-20T00:36:39.653Z,5.30
2022-09-20T00:37:12.729Z,5.10
2022-09-20T00:37:45.846Z,4.90
2022-09-20T00:38:20.705Z,5.30
2022-09-20T00:38:59.034Z,5.30
2022-09-20T00:39:32.249Z,5.10
2022-09-20T00:40:07.927Z,5.00
2022-09-20T00:40:42.851Z,5.30
2022-09-20T00:41:17.044Z,5.00
2022-09-20T00:41:50.029Z,4.60
2022-09-20T00:42:28.799Z,4.80
2022-09-20T00:43:01.915Z,5.00
2022-09-20T00:43:41.235Z,5.20
2022-09-20T00:44:56.211Z,4.50
2022-09-20T00:45:30.785Z,4.60
2022-09-20T00:46:05.356Z,4.30
2022-09-20T00:46:43.876Z,4.70
2022-09-20T00:47:25.119Z,4.50
2022-09-20T00:48:13.250Z,4.80
2022-09-20T00:48:47.101Z,4.90
2022-09-20T00:49:27.025Z,5.10
2022-09-20T00:50:24.556Z,4.60
2022-09-20T00:51:07.810Z,4.60
2022-09-20T00:51:46.570Z,4.60
2022-09-20T00:52:20.833Z,5.20
2022-09-20T00:53:07.677Z,5.30
2022-09-20T00:53:45.349Z,4.30
2022-09-20T00:54:20.958Z,5.00
2022-09-20T00:54:54.920Z,4.50
2022-09-20T00:55:29.464Z,4.50
2022-09-20T00:56:09.354Z,4.30
2022-09-20T00:56:44.342Z,4.40
2022-09-20T00:57:17.812Z,4.60
2022-09-20T00:57:51.438Z,4.70
2022-09-20T00:58:27.705Z,4.40
2022-09-20T00:59:19.050Z,4.90
2022-09-20T00:59:54.241Z,4.00
2022-09-20T01:00:28.243Z,4.70
2022-09-20T01:01:01.740Z,4.90
2022-09-20T01:01:35.717Z,4.60
2022-09-20T01:02:17.099Z,4.40
2022-09-20T01:02:55.453Z,4.30
2022-09-20T01:03:33.341Z,4.40
2022-09-20T01:04:06.606Z,4.60
2022-09-20T01:04:42.775Z,4.20
2022-09-20T01:05:18.936Z,5.00
2022-09-20T01:05:54.126Z,4.50
2022-09-20T01:06:27.967Z,4.50
2022-09-20T01:07:04.752Z,4.80
2022-09-20T01:07:38.395Z,4.30
2022-09-20T01:08:12.340Z,4.20
2022-09-20T01:08:51.009Z,4.10
2022-09-20T01:09:24.160Z,4.40
2022-09-20T01:09:57.700Z,3.90
2022-09-20T01:10:32.698Z,4.10
2022-09-20T01:11:06.108Z,4.20
2022-09-20T01:11:40.991Z,3.90
2022-09-20T01:12:19.458Z,4.40
2022-09-20T01:12:54.033Z,3.90
2022-09-20T01:13:27.137Z,4.30
2022-09-20T01:14:00.107Z,4.60
2022-09-20T01:14:34.752Z,4.30
2022-09-20T01:15:10.334Z,4.50
2022-09-20T01:15:46.935Z,4.80
2022-09-20T01:16:21.712Z,4.50
2022-09-20T01:16:57.875Z,4.40
2022-09-20T01:17:35.029Z,4.60
2022-09-20T01:18:10.322Z,4.20
2022-09-20T01:18:45.267Z,4.20
2022-09-20T01:19:42.915Z,4.10
2022-09-20T01:20:24.184Z,4.00
2022-09-20T01:20:58.660Z,4.60
2022-09-20T01:21:31.792Z,4.00
2022-09-20T01:22:16.107Z,4.30
2022-09-20T01:23:10.805Z,4.10
2022-09-20T01:24:06.910Z,4.10
2022-09-20T01:25:25.281Z,3.90
2022-09-20T01:26:23.348Z,4.60
2022-09-20T01:27:18.396Z,3.70
2022-09-20T01:27:54.012Z,4.20
2022-09-20T01:28:29.029Z,3.90
2022-09-20T01:29:46.602Z,4.00
2022-09-20T01:30:26.228Z,4.20
2022-09-20T01:31:09.117Z,3.80
2022-09-20T01:31:50.547Z,4.00
2022-09-20T01:32:29.850Z,3.40
2022-09-20T01:33:21.778Z,3.50
2022-09-20T01:34:01.439Z,4.00
2022-09-20T01:34:37.215Z,3.60
2022-09-20T01:35:11.893Z,4.00
2022-09-20T01:35:49.798Z,4.00
2022-09-20T01:36:33.712Z,4.10
2022-09-20T01:37:28.638Z,3.70
2022-09-20T01:38:31.281Z,4.50
2022-09-20T01:39:08.772Z,4.40
2022-09-20T01:40:04.430Z,4.80
2022-09-20T01:40:49.255Z,4.70
2022-09-20T01:41:29.378Z,4.40
2022-09-20T01:42:12.615Z,4.20
2022-09-20T01:43:03.358Z,4.50
2022-09-20T01:43:47.226Z,4.30
2022-09-20T01:44:38.768Z,4.40
2022-09-20T01:45:32.571Z,4.20
2022-09-20T01:46:32.954Z,4.30
2022-09-20T01:47:29.190Z,3.90
2022-09-20T01:48:14.211Z,4.10
2022-09-20T01:48:49.658Z,4.60
2022-09-20T01:49:37.939Z,4.50
2022-09-20T01:50:52.930Z,4.60
2022-09-20T01:52:10.474Z,4.40
2022-09-20T01:53:37.599Z,4.50
2022-09-20T01:54:10.623Z,4.90
2022-09-20T01:55:08.635Z,4.50
2022-09-20T01:56:03.399Z,4.00
2022-09-20T01:56:48.682Z,4.20
2022-09-20T01:57:30.752Z,4.30
2022-09-20T01:58:25.141Z,4.20
2022-09-20T01:59:19.906Z,3.90
2022-09-20T01:59:56.757Z,4.00
2022-09-20T02:00:35.243Z,3.50
2022-09-20T02:01:31.348Z,4.00
2022-09-20T02:02:22.733Z,4.60
2022-09-20T02:03:43.696Z,3.80
2022-09-20T02:04:34.969Z,4.10
2022-09-20T02:05:24.370Z,4.30
2022-09-20T02:06:19.235Z,4.40
2022-09-20T02:07:19.212Z,4.70
2022-09-20T02:08:08.318Z,3.80
2022-09-20T02:08:51.007Z,4.40
2022-09-20T02:09:33.003Z,4.70
2022-09-20T02:10:35.501Z,4.50
2022-09-20T02:11:20.999Z,4.10
2022-09-20T02:12:33.689Z,4.30
2022-09-20T02:13:20.701Z,4.00
2022-09-20T02:14:20.747Z,4.20
2022-09-20T02:15:01.179Z,4.10
2022-09-20T02:15:58.616Z,4.10
2022-09-20T02:16:57.222Z,4.20
2022-09-20T02:17:48.477Z,4.20
2022-09-20T02:18:52.520Z,4.60
2022-09-20T02:19:34.604Z,4.00
2022-09-20T02:20:23.689Z,4.50
2022-09-20T02:21:23.319Z,4.20
2022-09-20T02:22:15.104Z,3.90
2022-09-20T02:23:21.082Z,4.50
2022-09-20T02:24:15.926Z,4.60
2022-09-20T02:25:07.300Z,4.10
2022-09-20T02:26:01.357Z,4.50
2022-09-20T02:26:59.022Z,4.40
2022-09-20T02:27:40.979Z,4.40
2022-09-20T02:28:50.018Z,4.30
2022-09-20T02:29:33.866Z,4.20
2022-09-20T02:30:25.469Z,4.00
2022-09-20T02:31:32.802Z,4.10
2022-09-20T02:32:17.824Z,4.20
2022-09-20T02:33:18.122Z,3.80
2022-09-20T02:34:21.171Z,4.00
2022-09-20T02:35:13.489Z,3.70
2022-09-20T02:36:13.694Z,3.30
2022-09-20T02:37:05.547Z,3.60
2022-09-20T02:37:57.063Z,3.90
2022-09-20T02:38:52.522Z,3.50
2022-09-20T02:39:35.750Z,3.70
2022-09-20T02:40:11.910Z,3.10
2022-09-20T02:40:56.881Z,3.60
2022-09-20T02:41:42.641Z,3.90
2022-09-20T02:42:21.538Z,3.80
2022-09-20T02:43:18.075Z,3.40
2022-09-20T02:44:24.872Z,3.60
2022-09-20T02:45:16.396Z,3.80
2022-09-20T02:46:10.974Z,3.60
2022-09-20T02:46:56.456Z,3.10
2022-09-20T02:47:41.683Z,3.40
2022-09-20T02:48:18.238Z,3.40
2022-09-20T02:49:18.179Z,2.80
2022-09-20T02:50:29.169Z,3.40
2022-09-20T02:51:22.479Z,3.00
2022-09-20T02:52:07.673Z,3.10
2022-09-20T02:53:17.976Z,3.70
2022-09-20T02:54:00.131Z,3.20
2022-09-20T02:54:57.949Z,3.20
2022-09-20T02:56:08.657Z,3.60
2022-09-20T02:56:58.971Z,3.10
2022-09-20T02:58:06.348Z,3.10
2022-09-20T02:58:39.403Z,3.20
2022-09-20T02:59:48.571Z,3.50
2022-09-20T03:00:29.458Z,3.00
2022-09-20T03:01:25.814Z,3.00
2022-09-20T03:02:17.456Z,3.10
2022-09-20T03:03:18.113Z,2.50
2022-09-20T03:04:12.470Z,2.40
2022-09-20T03:05:11.546Z,2.30
2022-09-20T03:06:25.942Z,2.50
2022-09-20T03:07:34.324Z,2.50
2022-09-20T03:08:45.660Z,3.10
2022-09-20T03:09:39.209Z,2.70
2022-09-20T03:10:32.376Z,3.00
2022-09-20T03:11:26.591Z,3.00
2022-09-20T03:12:33.530Z,2.80
2022-09-20T03:13:37.598Z,3.20
2022-09-20T03:14:23.464Z,2.70
2022-09-20T03:15:21.230Z,2.70
2022-09-20T03:16:29.623Z,2.90
2022-09-20T03:17:26.732Z,2.40
2022-09-20T03:18:14.965Z,2.70
2022-09-20T03:19:13.002Z,2.40
2022-09-20T03:20:07.661Z,2.00
2022-09-20T03:21:02.342Z,2.60
2022-09-20T03:21:38.130Z,2.70
2022-09-20T03:22:23.201Z,2.40
2022-09-20T03:23:27.067Z,2.80
2022-09-20T03:24:24.049Z,2.70
2022-09-20T03:25:09.228Z,2.80
2022-09-20T03:26:21.451Z,2.50
2022-09-20T03:27:16.204Z,2.80
2022-09-20T03:27:58.193Z,2.40
2022-09-20T03:28:49.583Z,2.60
2022-09-20T03:29:43.179Z,2.70
2022-09-20T03:30:46.689Z,2.10
2022-09-20T03:31:46.005Z,2.40
2022-09-20T03:32:31.468Z,2.60
2022-09-20T03:33:22.676Z,2.10
2022-09-20T03:35:06.646Z,2.60
2022-09-20T03:36:08.842Z,2.50
2022-09-20T03:37:10.061Z,2.50
2022-09-20T03:37:59.690Z,2.50
2022-09-20T03:38:55.514Z,2.70
2022-09-20T03:39:38.385Z,2.50
2022-09-20T03:40:29.876Z,2.60
2022-09-20T03:41:11.937Z,2.40
2022-09-20T03:42:18.322Z,2.60
2022-09-20T03:42:54.805Z,1.90
2022-09-20T03:44:05.553Z,2.30
2022-09-20T03:44:58.921Z,2.00
2022-09-20T03:46:12.773Z,2.00
2022-09-20T03:46:47.498Z,2.50
2022-09-20T03:47:37.195Z,1.90
2022-09-20T03:48:49.586Z,2.00
2022-09-20T03:49:42.188Z,2.10
2022-09-20T03:50:53.221Z,2.20
2022-09-20T03:51:41.691Z,1.80
2022-09-20T03:52:59.736Z,2.20
2022-09-20T03:54:04.373Z,1.70
2022-09-20T03:54:57.672Z,1.90
2022-09-20T03:55:49.622Z,1.90
2022-09-20T03:56:43.982Z,1.90
2022-09-20T03:57:35.941Z,1.80
2022-09-20T03:58:31.053Z,1.80
2022-09-20T03:59:25.959Z,2.00
2022-09-20T04:00:05.790Z,1.90
2022-09-20T04:01:16.532Z,2.00
2022-09-20T04:02:08.009Z,1.70
2022-09-20T04:03:18.707Z,1.70
2022-09-20T04:04:05.930Z,1.90
2022-09-20T04:04:53.889Z,1.90
2022-09-20T04:05:51.273Z,1.60
2022-09-20T04:07:03.068Z,1.90
2022-09-20T04:07:48.377Z,1.70
2022-09-20T04:08:47.892Z,1.80
2022-09-20T04:09:38.848Z,1.60
2022-09-20T04:10:25.976Z,1.80
2022-09-20T04:11:18.099Z,1.50
2022-09-20T04:12:01.876Z,1.60
2022-09-20T04:12:50.562Z,1.60
2022-09-20T04:13:36.427Z,1.50
2022-09-20T04:14:18.891Z,1.70
2022-09-20T04:15:01.059Z,1.60
2022-09-20T04:15:51.804Z,1.30
2022-09-20T04:16:43.733Z,1.40
2022-09-20T04:17:35.565Z,1.40
2022-09-20T04:18:31.646Z,1.40
2022-09-20T04:19:22.842Z,1.50
2022-09-20T04:20:14.653Z,1.50
2022-09-20T04:20:55.631Z,1.30
2022-09-20T04:21:43.915Z,1.20
2022-09-20T04:22:20.901Z,1.40
2022-09-20T04:22:59.105Z,1.50
2022-09-20T04:23:57.022Z,1.50
2022-09-20T04:24:30.251Z,1.40
2022-09-20T04:25:14.925Z,1.40
2022-09-20T04:25:51.083Z,1.70
2022-09-20T04:26:31.431Z,1.20
2022-09-20T04:27:15.546Z,1.50
2022-09-20T04:28:00.472Z,1.50
2022-09-20T04:28:55.640Z,1.30
2022-09-20T04:29:53.356Z,1.40
2022-09-20T04:30:30.686Z,1.10
2022-09-20T04:31:24.924Z,1.10
2022-09-20T04:32:22.142Z,1.30
2022-09-20T04:33:20.393Z,1.20
2022-09-20T04:33:57.715Z,1.10
2022-09-20T04:34:57.887Z,1.20
2022-09-20T04:36:11.081Z,1.30
2022-09-20T04:36:58.513Z,1.10
2022-09-20T04:37:38.722Z,1.40
2022-09-20T04:38:17.593Z,1.30
2022-09-20T04:39:05.309Z,1.70
2022-09-20T04:40:00.404Z,1.50
2022-09-20T04:40:43.015Z,1.50
2022-09-20T04:41:51.573Z,1.70
2022-09-20T04:43:15.656Z,1.40
2022-09-20T04:44:11.839Z,2.00
2022-09-20T04:45:24.364Z,1.40
2022-09-20T04:46:25.691Z,1.20
2022-09-20T04:47:15.851Z,1.10
2022-09-20T04:48:42.719Z,1.40
2022-09-20T04:49:35.982Z,1.30
2022-09-20T04:50:15.038Z,1.30
2022-09-20T04:51:18.999Z,1.20
2022-09-20T04:52:14.162Z,1.30
2022-09-20T04:53:05.918Z,1.10
2022-09-20T04:54:08.298Z,1.50
2022-09-20T04:54:44.949Z,1.20
2022-09-20T04:55:29.779Z,1.20
2022-09-20T04:56:22.177Z,1.40
2022-09-20T04:57:24.802Z,1.40
2022-09-20T04:58:28.986Z,1.50
2022-09-20T04:59:11.102Z,1.10
2022-09-20T05:00:03.144Z,1.10
2022-09-20T05:01:22.883Z,1.40
2022-09-20T05:02:27.211Z,1.50
2022-09-20T05:03:19.016Z,1.30
2022-09-20T05:04:19.120Z,1.30
2022-09-20T05:05:11.054Z,1.30
2022-09-20T05:06:04.989Z,1.50
2022-09-20T05:06:56.628Z,1.00
2022-09-20T05:07:48.729Z,1.00
2022-09-20T05:08:43.753Z,1.20
2022-09-20T05:09:47.429Z,0.90
2022-09-20T05:10:55.744Z,1.00
2022-09-20T05:11:47.825Z,1.00
2022-09-20T05:12:36.365Z,1.00
2022-09-20T05:13:51.976Z,0.90
2022-09-20T05:14:51.696Z,1.00
2022-09-20T05:15:58.938Z,0.80
2022-09-20T05:16:53.785Z,1.40
2022-09-20T05:18:00.028Z,0.80
2022-09-20T05:19:07.777Z,1.00
2022-09-20T05:19:47.000Z,1.10
2022-09-20T05:20:25.882Z,1.00
2022-09-20T05:21:20.596Z,1.00
2022-09-20T05:22:31.582Z,1.10
2022-09-20T05:23:16.723Z,0.80
2022-09-20T05:24:08.436Z,1.00
2022-09-20T05:25:28.723Z,0.80
2022-09-20T05:26:08.518Z,0.70
2022-09-20T05:26:53.954Z,0.70
2022-09-20T05:27:48.891Z,0.90
2022-09-20T05:28:46.086Z,1.00
2022-09-20T05:29:42.667Z,0.80
2022-09-20T05:30:30.656Z,0.90
2022-09-20T05:31:22.426Z,0.70
2022-09-20T05:32:14.023Z,0.70
2022-09-20T05:33:24.736Z,0.70
2022-09-20T05:34:15.946Z,1.20
2022-09-20T05:35:44.719Z,0.80
2022-09-20T05:36:20.808Z,0.80
2022-09-20T05:37:06.955Z,0.90
2022-09-20T05:38:14.023Z,0.80
2022-09-20T05:39:03.585Z,0.70
2022-09-20T05:40:17.958Z,0.70
2022-09-20T05:41:09.561Z,0.80
2022-09-20T05:42:08.361Z,1.00
2022-09-20T05:43:21.098Z,0.80
2022-09-20T05:44:22.508Z,0.90
2022-09-20T05:44:55.602Z,0.70
2022-09-20T05:45:40.717Z,0.90
2022-09-20T05:46:32.356Z,0.80
2022-09-20T05:47:28.741Z,0.80
2022-09-20T05:48:14.446Z,1.00
2022-09-20T05:48:59.577Z,0.90
2022-09-20T05:50:09.941Z,1.00
2022-09-20T05:50:45.975Z,0.90
2022-09-20T05:51:50.210Z,0.90
2022-09-20T05:52:29.580Z,0.70
2022-09-20T05:53:13.968Z,0.70
2022-09-20T05:54:05.590Z,0.90
2022-09-20T05:54:56.939Z,1.30
2022-09-20T05:55:35.991Z,1.00
2022-09-20T05:56:37.057Z,0.80
2022-09-20T05:57:47.752Z,0.90
2022-09-20T05:58:29.931Z,1.10
2022-09-20T05:59:24.484Z,1.40
2022-09-20T06:00:07.791Z,1.30
2022-09-20T06:00:56.623Z,1.20
2022-09-20T06:01:40.068Z,1.10
2022-09-20T06:02:42.000Z,1.20
2022-09-20T06:03:36.895Z,2.00
2022-09-20T06:04:38.920Z,1.20
2022-09-20T06:05:29.030Z,1.80
2022-09-20T06:06:10.958Z,1.70
2022-09-20T06:07:12.436Z,2.20
2022-09-20T06:08:04.689Z,2.50
2022-09-20T06:08:59.608Z,2.50
2022-09-20T06:09:35.455Z,1.80
2022-09-20T06:10:31.870Z,1.60
2022-09-20T06:11:13.749Z,1.70
2022-09-20T06:12:21.119Z,1.30
2022-09-20T06:13:15.955Z,1.30
2022-09-20T06:14:10.374Z,1.10
2022-09-20T06:15:12.369Z,2.10
2022-09-20T06:16:01.498Z,1.20
2022-09-20T06:16:40.793Z,1.60
2022-09-20T06:17:26.931Z,1.60
2022-09-20T06:18:37.002Z,1.50
2022-09-20T06:19:48.762Z,1.20
2022-09-20T06:20:37.297Z,1.00
2022-09-20T06:21:19.448Z,1.30
2022-09-20T06:22:03.477Z,1.00
2022-09-20T06:22:39.647Z,1.20
2022-09-20T06:23:13.227Z,0.90
2022-09-20T06:23:46.416Z,1.20
2022-09-20T06:24:43.311Z,1.30
2022-09-20T06:25:22.629Z,1.00
2022-09-20T06:26:24.017Z,1.20
2022-09-20T06:27:03.246Z,1.90
2022-09-20T06:27:41.055Z,2.10
2022-09-20T06:28:21.450Z,2.80
2022-09-20T06:29:00.232Z,3.20
2022-09-20T06:29:38.909Z,3.00
2022-09-20T06:30:23.078Z,3.20
2022-09-20T06:30:57.711Z,4.50
2022-09-20T06:31:30.931Z,5.80
2022-09-20T06:32:04.307Z,6.70
2022-09-20T06:33:00.540Z,6.90
2022-09-20T06:33:33.826Z,3.70
2022-09-20T06:34:13.619Z,2.80
2022-09-20T06:34:48.538Z,2.80
2022-09-20T06:35:26.519Z,3.40
2022-09-20T06:36:28.091Z,3.10
2022-09-20T06:38:06.811Z,3.60
2022-09-20T06:39:17.895Z,3.20
2022-09-20T06:40:47.095Z,1.80
2022-09-20T06:41:28.487Z,2.40
2022-09-20T06:42:34.565Z,3.70
2022-09-20T06:43:07.587Z,4.80
2022-09-20T06:43:41.358Z,4.70
2022-09-20T06:44:14.490Z,3.80
2022-09-20T06:44:47.655Z,3.00
2022-09-20T06:45:20.757Z,3.10
2022-09-20T06:45:53.956Z,2.30
2022-09-20T06:46:32.407Z,1.70
2022-09-20T06:47:08.944Z,2.10
2022-09-20T06:47:42.122Z,2.10
2022-09-20T06:48:15.819Z,1.70
2022-09-20T06:48:51.450Z,2.00
2022-09-20T06:49:28.495Z,1.90
2022-09-20T06:50:01.614Z,1.80
2022-09-20T06:50:36.662Z,1.90
2022-09-20T06:51:10.638Z,1.90
2022-09-20T06:51:43.757Z,2.70
2022-09-20T06:52:19.666Z,3.30
2022-09-20T06:52:53.866Z,3.10
2022-09-20T06:53:31.140Z,2.40
2022-09-20T06:54:07.031Z,2.40
2022-09-20T06:54:46.074Z,3.40
2022-09-20T06:55:29.594Z,3.70
2022-09-20T06:56:03.543Z,3.70
2022-09-20T06:56:37.037Z,3.70
2022-09-20T06:57:10.915Z,3.00
2022-09-20T06:57:44.317Z,3.00
2022-09-20T06:58:17.593Z,2.30
2022-09-20T06:58:52.965Z,3.10
2022-09-20T06:59:26.068Z,3.80
2022-09-20T06:59:59.228Z,4.00
2022-09-20T07:00:32.405Z,3.80
2022-09-20T07:01:05.613Z,3.10
2022-09-20T07:01:39.216Z,2.80
2022-09-20T07:02:12.541Z,2.90
2022-09-20T07:02:46.990Z,3.50
2022-09-20T07:03:20.251Z,2.90
2022-09-20T07:03:53.509Z,3.30
2022-09-20T07:04:27.292Z,3.20
2022-09-20T07:05:02.209Z,2.90
2022-09-20T07:05:36.614Z,2.90
2022-09-20T07:06:10.826Z,2.80
2022-09-20T07:06:44.069Z,2.80
2022-09-20T07:07:20.760Z,2.60
2022-09-20T07:07:58.739Z,2.10
2022-09-20T07:08:32.651Z,1.70
2022-09-20T07:09:06.349Z,4.50
2022-09-20T07:09:39.431Z,4.40
2022-09-20T07:10:12.804Z,6.50
2022-09-20T07:10:45.942Z,9.80
2022-09-20T07:11:19.111Z,13.10
2022-09-20T07:11:52.141Z,17.40
2022-09-20T07:12:25.944Z,14.30
2022-09-20T07:13:00.874Z,11.30
2022-09-20T07:13:34.760Z,15.90
2022-09-20T07:14:08.091Z,11.30
2022-09-20T07:14:42.040Z,6.60
2022-09-20T07:15:16.761Z,5.10
2022-09-20T07:15:50.903Z,2.70
2022-09-20T07:16:24.859Z,2.10
2022-09-20T07:16:58.002Z,1.80
2022-09-20T07:17:31.130Z,1.60
2022-09-20T07:18:04.320Z,1.30
2022-09-20T07:18:37.503Z,1.50
2022-09-20T07:19:10.790Z,1.80
2022-09-20T07:19:43.957Z,1.90
2022-09-20T07:20:21.363Z,2.30
2022-09-20T07:20:56.064Z,1.70
2022-09-20T07:21:29.387Z,2.20
2022-09-20T07:22:03.187Z,1.60
2022-09-20T07:22:36.568Z,1.50
2022-09-20T07:23:10.372Z,1.40
2022-09-20T07:23:46.183Z,1.60
2022-09-20T07:24:20.458Z,1.80
2022-09-20T07:24:53.760Z,1.50
2022-09-20T07:25:27.695Z,1.30
2022-09-20T07:26:01.438Z,1.40
2022-09-20T07:26:35.303Z,1.20
2022-09-20T07:27:08.526Z,1.50
2022-09-20T07:27:41.800Z,1.00
2022-09-20T07:28:14.966Z,1.10
2022-09-20T07:28:49.781Z,1.20
2022-09-20T07:29:23.214Z,1.00
2022-09-20T07:29:56.782Z,1.50
2022-09-20T07:30:30.064Z,2.10
2022-09-20T07:31:03.126Z,2.20
2022-09-20T07:31:36.946Z,1.90
2022-09-20T07:32:10.187Z,2.50
2022-09-20T07:32:43.445Z,3.50
2022-09-20T07:33:25.293Z,3.00
2022-09-20T07:33:58.791Z,2.50
2022-09-20T07:34:32.407Z,2.90
2022-09-20T07:35:06.123Z,2.80
2022-09-20T07:35:39.309Z,2.80
2022-09-20T07:36:13.717Z,1.90
2022-09-20T07:36:51.629Z,2.20
2022-09-20T07:37:25.112Z,2.70
2022-09-20T07:37:58.773Z,2.20
2022-09-20T07:38:31.931Z,2.80
2022-09-20T07:39:05.024Z,3.00
2022-09-20T07:39:38.549Z,2.30
2022-09-20T07:40:12.272Z,2.50
2022-09-20T07:40:48.340Z,2.10
2022-09-20T07:41:23.206Z,2.40
2022-09-20T07:41:56.956Z,2.80
2022-09-20T07:42:30.532Z,2.60
2022-09-20T07:43:03.744Z,2.30
2022-09-20T07:43:37.457Z,2.10
2022-09-20T07:44:24.694Z,1.80
2022-09-20T07:44:58.191Z,0.90
2022-09-20T07:45:35.767Z,1.10
2022-09-20T07:46:11.437Z,1.00
2022-09-20T07:46:46.425Z,1.10
2022-09-20T07:47:19.475Z,1.00
2022-09-20T07:47:52.595Z,1.30
2022-09-20T07:48:31.614Z,1.10
2022-09-20T07:49:07.023Z,0.90
2022-09-20T07:49:40.123Z,1.00
2022-09-20T07:50:13.474Z,1.30
2022-09-20T07:50:54.362Z,1.10
2022-09-20T07:51:27.765Z,1.10
2022-09-20T07:52:01.094Z,1.10
2022-09-20T07:52:34.272Z,1.20
2022-09-20T07:53:07.400Z,1.80
2022-09-20T07:53:41.600Z,1.90
2022-09-20T07:54:15.121Z,2.30
2022-09-20T07:54:50.253Z,2.40
2022-09-20T07:55:23.309Z,2.20
2022-09-20T07:55:57.312Z,1.90
2022-09-20T07:56:30.376Z,1.50
2022-09-20T07:57:05.898Z,1.70
2022-09-20T07:57:38.994Z,1.90
2022-09-20T07:58:12.132Z,2.40
2022-09-20T07:58:50.044Z,2.20
2022-09-20T07:59:26.230Z,1.80
2022-09-20T07:59:59.234Z,1.90
2022-09-20T08:00:32.428Z,2.30
2022-09-20T08:01:08.976Z,2.50
2022-09-20T08:01:43.307Z,2.40
2022-09-20T08:02:17.236Z,2.20
2022-09-20T08:02:59.309Z,2.40
2022-09-20T08:03:34.875Z,2.60
2022-09-20T08:04:09.292Z,2.40
2022-09-20T08:04:43.721Z,2.00
2022-09-20T08:05:16.890Z,1.90
2022-09-20T08:05:50.558Z,1.70
2022-09-20T08:06:24.590Z,2.00
2022-09-20T08:06:58.862Z,1.80
2022-09-20T08:07:32.012Z,1.70
2022-09-20T08:08:05.134Z,1.80
2022-09-20T08:08:43.658Z,1.50
2022-09-20T08:09:16.924Z,1.60
2022-09-20T08:09:50.846Z,1.30
2022-09-20T08:10:25.787Z,1.50
2022-09-20T08:11:07.099Z,1.40
2022-09-20T08:11:43.183Z,1.30
2022-09-20T08:14:16.710Z,1.60
2022-09-20T08:14:49.922Z,1.80
2022-09-20T08:15:23.130Z,1.70
2022-09-20T08:16:04.167Z,2.10
2022-09-20T08:16:43.543Z,2.10
2022-09-20T08:17:16.701Z,2.00
2022-09-20T08:17:49.785Z,1.70
2022-09-20T08:18:22.831Z,2.00
2022-09-20T08:18:59.118Z,2.10
2022-09-20T08:19:32.227Z,2.20
2022-09-20T08:20:06.739Z,2.00
2022-09-20T08:20:39.867Z,2.20
2022-09-20T08:21:14.246Z,2.10
2022-09-20T08:21:48.208Z,2.00
2022-09-20T08:22:22.405Z,1.70
2022-09-20T08:23:19.454Z,1.80
2022-09-20T08:23:49.306Z,2.10
2022-09-20T08:24:22.708Z,1.80
2022-09-20T08:24:55.943Z,2.20
2022-09-20T08:25:29.831Z,1.80
2022-09-20T08:26:04.201Z,1.80
2022-09-20T08:26:37.466Z,2.10
2022-09-20T08:27:10.516Z,1.90
2022-09-20T08:27:43.840Z,1.70
2022-09-20T08:28:16.930Z,2.10
2022-09-20T08:28:53.901Z,1.80
2022-09-20T08:29:27.036Z,1.80
2022-09-20T08:30:01.380Z,3.00
2022-09-20T08:30:34.513Z,3.30
2022-09-20T08:31:10.392Z,2.50
2022-09-20T08:31:44.227Z,3.00
2022-09-20T08:32:17.336Z,2.40
2022-09-20T08:32:50.618Z,2.30
2022-09-20T08:33:24.163Z,2.00
2022-09-20T08:33:58.388Z,2.00
2022-09-20T08:34:32.082Z,1.80
2022-09-20T08:35:05.530Z,2.10
2022-09-20T08:35:38.671Z,2.70
2022-09-20T08:36:18.597Z,2.10
2022-09-20T08:36:56.717Z,2.10
2022-09-20T08:37:30.421Z,2.50
2022-09-20T08:39:58.829Z,2.90
2022-09-20T08:40:32.635Z,2.70
2022-09-20T08:41:16.179Z,2.80
2022-09-20T08:42:24.453Z,2.40
2022-09-20T08:42:58.225Z,2.80
2022-09-20T08:43:45.572Z,3.50
2022-09-20T08:44:45.185Z,2.90
2022-09-20T08:45:22.667Z,2.90
2022-09-20T08:46:13.900Z,2.60
2022-09-20T08:46:50.536Z,2.60
2022-09-20T08:47:31.453Z,2.80
2022-09-20T08:48:07.676Z,2.40
2022-09-20T08:48:42.160Z,2.80
2022-09-20T08:49:28.694Z,3.30
2022-09-20T08:50:10.213Z,3.00
2022-09-20T08:50:44.569Z,3.20
2022-09-20T08:51:26.152Z,3.80
2022-09-20T08:52:01.636Z,3.40
2022-09-20T08:52:38.261Z,3.60
2022-09-20T08:53:14.916Z,3.70
2022-09-20T08:53:59.152Z,4.00
2022-09-20T08:54:35.472Z,4.20
2022-09-20T08:55:19.036Z,3.90
2022-09-20T08:55:52.594Z,4.00
2022-09-20T08:56:36.736Z,4.30
2022-09-20T08:57:15.698Z,4.10
2022-09-20T08:57:54.819Z,3.30
2022-09-20T08:58:28.404Z,3.80
2022-09-20T08:59:01.497Z,4.20
2022-09-20T08:59:35.380Z,4.00
2022-09-20T09:00:20.046Z,4.50
2022-09-20T09:00:56.423Z,3.80
2022-09-20T09:01:31.963Z,3.90
2022-09-20T09:02:18.453Z,4.20
2022-09-20T09:02:55.805Z,4.60
2022-09-20T09:03:29.060Z,4.20
2022-09-20T09:04:13.828Z,4.80
2022-09-20T09:04:49.106Z,5.00
2022-09-20T09:05:54.391Z,5.50
2022-09-20T09:06:27.578Z,5.60
2022-09-20T09:07:00.801Z,5.20
2022-09-20T09:07:33.860Z,5.10
2022-09-20T09:08:16.863Z,6.20
2022-09-20T09:08:53.674Z,5.50
2022-09-20T09:09:29.429Z,5.60
2022-09-20T09:10:03.406Z,5.50
2022-09-20T09:10:43.314Z,5.50
2022-09-20T09:11:19.142Z,5.30
2022-09-20T09:11:54.734Z,5.60
2022-09-20T09:12:30.988Z,5.70
2022-09-20T09:13:05.804Z,5.00
2022-09-20T09:13:49.476Z,5.40
2022-09-20T09:14:49.786Z,5.10
2022-09-20T09:15:32.871Z,5.20
2022-09-20T09:16:11.522Z,5.60
2022-09-20T09:16:45.019Z,5.80
2022-09-20T09:17:27.578Z,5.80
2022-09-20T09:18:01.621Z,6.20
2022-09-20T09:18:39.475Z,6.60
2022-09-20T09:19:51.573Z,6.40
2022-09-20T09:20:25.685Z,6.20
2022-09-20T09:20:59.547Z,6.70
2022-09-20T09:21:33.939Z,6.30
2022-09-20T09:22:07.058Z,6.30
2022-09-20T09:22:43.377Z,7.00
2022-09-20T09:23:26.379Z,5.70
2022-09-20T09:24:06.083Z,5.80
2022-09-20T09:24:39.162Z,6.00
2022-09-20T09:25:14.934Z,5.60
2022-09-20T09:25:49.118Z,6.00
2022-09-20T09:26:24.209Z,6.30
2022-09-20T09:27:29.460Z,6.40
2022-09-20T09:28:13.663Z,6.10
2022-09-20T09:28:48.741Z,6.50
2022-09-20T09:29:23.988Z,6.20
2022-09-20T09:29:57.017Z,6.50
2022-09-20T09:30:33.044Z,6.60
2022-09-20T09:31:26.154Z,6.80
2022-09-20T09:32:20.990Z,6.10
2022-09-20T09:33:16.557Z,6.50
2022-09-20T09:33:49.899Z,5.70
2022-09-20T09:34:31.877Z,6.40
2022-09-20T09:35:36.056Z,6.30
2022-09-20T09:36:15.349Z,6.20
2022-09-20T09:36:48.587Z,6.40
2022-09-20T09:37:31.382Z,6.80
2022-09-20T09:38:04.441Z,6.70
2022-09-20T09:38:42.180Z,6.60
2022-09-20T09:39:40.798Z,6.50
2022-09-20T09:40:17.936Z,7.20
2022-09-20T09:40:57.372Z,7.40
2022-09-20T09:41:35.968Z,6.90
2022-09-20T09:42:23.963Z,7.40
2022-09-20T09:43:02.927Z,6.90
2022-09-20T09:43:37.740Z,6.70
2022-09-20T09:44:29.106Z,6.90
2022-09-20T09:45:30.756Z,6.30
2022-09-20T09:46:53.806Z,6.50
2022-09-20T09:47:28.895Z,6.40
2022-09-20T09:48:03.565Z,6.20
2022-09-20T09:48:39.702Z,6.70
2022-09-20T09:49:18.500Z,7.00
2022-09-20T09:50:04.916Z,7.20
2022-09-20T09:50:40.644Z,8.30
2022-09-20T09:51:16.365Z,7.10
2022-09-20T09:52:16.122Z,7.30